createdAt,value
2017-10-05T00:01:23.857Z,13.46
2017-10-05T00:03:51.320Z,13.54
2017-10-05T00:06:18.817Z,13.52
2017-10-05T00:08:46.284Z,13.52
2017-10-05T00:11:13.842Z,13.56
2017-10-05T00:13:41.299Z,13.40
2017-10-05T00:16:08.800Z,13.39
2017-10-05T00:18:36.317Z,13.39
2017-10-05T00:21:03.917Z,13.43
2017-10-05T00:23:31.962Z,13.40
2017-10-05T00:25:59.443Z,13.48
2017-10-05T00:28:26.929Z,13.50
2017-10-05T00:30:54.394Z,13.55
2017-10-05T00:33:22.162Z,13.53
2017-10-05T00:35:49.612Z,13.42
2017-10-05T00:38:17.117Z,13.48
2017-10-05T00:40:44.595Z,13.44
2017-10-05T00:43:12.097Z,13.43
2017-10-05T00:45:39.649Z,13.41
2017-10-05T00:48:07.148Z,13.38
2017-10-05T00:50:34.640Z,13.29
2017-10-05T00:53:02.136Z,13.30
2017-10-05T00:55:29.598Z,13.30
2017-10-05T00:57:57.075Z,13.28
2017-10-05T01:00:24.568Z,13.33
2017-10-05T01:02:52.086Z,13.30
2017-10-05T01:05:19.595Z,13.34
2017-10-05T01:07:47.048Z,13.34
2017-10-05T01:10:14.549Z,13.24
2017-10-05T01:12:42.012Z,13.28
2017-10-05T01:15:09.530Z,13.28
2017-10-05T01:17:36.981Z,13.15
2017-10-05T01:20:04.637Z,13.09
2017-10-05T01:22:32.101Z,13.01
2017-10-05T01:24:59.568Z,12.95
2017-10-05T01:27:27.045Z,13.02
2017-10-05T01:29:54.510Z,13.10
2017-10-05T01:32:21.999Z,13.12
2017-10-05T01:34:49.453Z,13.09
2017-10-05T01:37:16.936Z,12.98
2017-10-05T01:39:44.393Z,12.95
2017-10-05T01:42:11.988Z,13.03
2017-10-05T01:44:39.436Z,13.00
2017-10-05T01:47:06.908Z,13.00
2017-10-05T01:49:34.396Z,12.94
2017-10-05T01:52:01.868Z,12.99
2017-10-05T01:54:29.349Z,12.95
2017-10-05T01:56:56.804Z,12.80
2017-10-05T01:59:24.294Z,12.83
2017-10-05T02:01:51.813Z,12.89
2017-10-05T02:04:19.285Z,12.81
2017-10-05T02:06:46.742Z,12.79
2017-10-05T02:09:14.230Z,12.80
2017-10-05T02:11:41.686Z,12.82
2017-10-05T02:14:09.152Z,12.88
2017-10-05T02:16:36.622Z,12.93
2017-10-05T02:19:04.070Z,12.90
2017-10-05T02:21:31.557Z,12.94
2017-10-05T02:23:59.006Z,12.89
2017-10-05T02:26:26.496Z,12.97
2017-10-05T02:28:53.942Z,12.95
2017-10-05T02:31:21.422Z,12.84
2017-10-05T02:33:48.896Z,12.76
2017-10-05T02:38:50.229Z,12.73
2017-10-05T02:41:17.711Z,12.81
2017-10-05T02:43:45.191Z,12.79
2017-10-05T02:46:12.689Z,12.79
2017-10-05T02:48:40.193Z,12.81
2017-10-05T02:51:07.649Z,12.85
2017-10-05T02:53:35.179Z,12.79
2017-10-05T02:56:02.630Z,12.71
2017-10-05T02:58:30.118Z,12.72
2017-10-05T03:00:57.585Z,12.83
2017-10-05T03:03:25.254Z,12.84
2017-10-05T03:05:52.725Z,12.87
2017-10-05T03:08:20.173Z,12.86
2017-10-05T03:10:47.653Z,12.82
2017-10-05T03:13:15.113Z,12.77
2017-10-05T03:15:42.591Z,12.77
2017-10-05T03:18:10.057Z,12.77
2017-10-05T03:20:37.549Z,12.77
2017-10-05T03:23:05.006Z,12.77
2017-10-05T03:25:32.478Z,12.73
2017-10-05T03:27:59.950Z,12.61
2017-10-05T03:30:27.425Z,12.55
2017-10-05T03:32:54.922Z,12.51
2017-10-05T03:35:22.380Z,12.57
2017-10-05T03:37:49.871Z,12.66
2017-10-05T03:40:17.328Z,12.62
2017-10-05T03:42:44.824Z,12.59
2017-10-05T03:45:12.285Z,12.60
2017-10-05T03:47:39.777Z,12.60
2017-10-05T03:50:07.244Z,12.64
2017-10-05T03:52:34.744Z,12.63
2017-10-05T03:55:02.209Z,12.47
2017-10-05T03:57:29.706Z,12.68
2017-10-05T03:59:57.197Z,12.75
2017-10-05T04:02:24.658Z,12.67
2017-10-05T04:04:52.957Z,12.58
2017-10-05T04:07:20.409Z,12.66
2017-10-05T04:09:47.900Z,12.54
2017-10-05T04:12:15.361Z,12.55
2017-10-05T04:14:42.846Z,12.53
2017-10-05T04:17:10.319Z,12.61
2017-10-05T04:19:37.798Z,12.61
2017-10-05T04:22:05.301Z,12.59
2017-10-05T04:24:32.809Z,12.62
2017-10-05T04:27:00.317Z,12.65
2017-10-05T04:29:27.814Z,12.59
2017-10-05T04:31:55.308Z,12.62
2017-10-05T04:34:22.777Z,12.57
2017-10-05T04:36:50.257Z,12.52
2017-10-05T04:39:17.726Z,12.53
2017-10-05T04:41:45.215Z,12.54
2017-10-05T04:44:12.724Z,12.56
2017-10-05T04:46:40.229Z,12.52
2017-10-05T04:49:07.733Z,12.58
2017-10-05T04:51:35.193Z,12.56
2017-10-05T04:54:02.709Z,12.49
2017-10-05T04:56:30.160Z,12.54
2017-10-05T04:58:57.656Z,12.57
2017-10-05T05:01:25.124Z,12.52
2017-10-05T05:03:52.652Z,12.52
2017-10-05T05:06:20.100Z,12.60
2017-10-05T05:08:47.595Z,12.55
2017-10-05T05:11:15.095Z,12.54
2017-10-05T05:13:42.582Z,12.55
2017-10-05T05:16:10.075Z,12.50
2017-10-05T05:18:37.554Z,12.46
2017-10-05T05:21:05.081Z,12.51
2017-10-05T05:23:33.628Z,12.44
2017-10-05T05:26:02.093Z,12.48
2017-10-05T05:28:30.501Z,12.48
2017-10-05T05:30:57.991Z,12.48
2017-10-05T05:33:25.464Z,12.46
2017-10-05T05:35:52.925Z,12.54
2017-10-05T05:38:21.089Z,12.09
2017-10-05T05:40:48.558Z,12.61
2017-10-05T05:43:16.038Z,12.55
2017-10-05T05:45:43.489Z,12.54
2017-10-05T05:48:11.008Z,12.46
2017-10-05T05:50:38.469Z,12.60
2017-10-05T05:53:06.077Z,12.58
2017-10-05T05:55:33.577Z,12.60
2017-10-05T05:58:01.040Z,12.61
2017-10-05T06:00:28.605Z,12.61
2017-10-05T06:02:56.135Z,12.66
2017-10-05T06:05:24.148Z,12.66
2017-10-05T06:07:51.616Z,12.66
2017-10-05T06:10:19.133Z,12.77
2017-10-05T06:12:46.599Z,12.66
2017-10-05T06:15:14.116Z,12.72
2017-10-05T06:17:41.571Z,12.67
2017-10-05T06:20:09.093Z,12.71
2017-10-05T06:22:36.553Z,12.81
2017-10-05T06:25:04.934Z,12.81
2017-10-05T06:27:32.400Z,12.89
2017-10-05T06:29:59.897Z,12.91
2017-10-05T06:32:27.374Z,12.86
2017-10-05T06:34:54.981Z,12.86
2017-10-05T06:37:22.449Z,12.92
2017-10-05T06:39:49.913Z,12.92
2017-10-05T06:42:17.409Z,13.03
2017-10-05T06:44:44.874Z,13.08
2017-10-05T06:47:12.356Z,13.03
2017-10-05T06:49:39.816Z,13.11
2017-10-05T06:52:07.353Z,13.20
2017-10-05T06:54:34.815Z,13.28
2017-10-05T06:57:02.398Z,13.31
2017-10-05T06:59:29.895Z,13.35
2017-10-05T07:01:57.364Z,13.38
2017-10-05T07:04:24.915Z,13.52
2017-10-05T07:06:52.369Z,13.47
2017-10-05T07:09:19.872Z,13.52
2017-10-05T07:11:47.361Z,13.60
2017-10-05T07:14:14.895Z,13.61
2017-10-05T07:16:42.361Z,13.68
2017-10-05T07:19:09.865Z,13.79
2017-10-05T07:21:37.337Z,13.85
2017-10-05T07:24:04.917Z,14.02
2017-10-05T07:26:32.377Z,13.98
2017-10-05T07:28:59.857Z,13.98
2017-10-05T07:31:27.358Z,13.93
2017-10-05T07:33:54.823Z,13.98
2017-10-05T07:36:22.340Z,13.90
2017-10-05T07:38:49.812Z,13.96
2017-10-05T07:41:17.346Z,13.98
2017-10-05T07:43:44.806Z,13.96
2017-10-05T07:46:12.321Z,13.94
2017-10-05T07:48:39.791Z,13.96
2017-10-05T07:51:07.673Z,14.02
2017-10-05T07:53:35.137Z,14.14
2017-10-05T07:56:02.609Z,14.19
2017-10-05T07:58:30.131Z,14.15
2017-10-05T08:00:57.589Z,14.25
2017-10-05T08:03:25.105Z,14.35
2017-10-05T08:05:52.572Z,14.34
2017-10-05T08:08:24.014Z,14.37
2017-10-05T08:10:51.490Z,14.27
2017-10-05T08:13:19.001Z,14.35
2017-10-05T08:15:46.493Z,14.37
2017-10-05T08:18:13.974Z,14.40
2017-10-05T08:20:41.465Z,14.30
2017-10-05T08:23:08.964Z,14.35
2017-10-05T08:25:36.481Z,14.44
2017-10-05T08:28:03.971Z,14.42
2017-10-05T08:30:31.733Z,14.54
2017-10-05T08:32:59.262Z,14.69
2017-10-05T08:35:27.013Z,14.74
2017-10-05T08:37:54.529Z,14.83
2017-10-05T08:40:22.061Z,14.96
2017-10-05T08:42:49.547Z,14.99
2017-10-05T08:45:17.018Z,15.08
2017-10-05T08:47:44.507Z,15.12
2017-10-05T08:50:11.990Z,15.08
2017-10-05T08:52:39.492Z,15.26
2017-10-05T08:55:06.985Z,15.27
2017-10-05T08:57:34.463Z,15.34
2017-10-05T09:00:01.941Z,15.29
2017-10-05T09:02:29.461Z,15.34
2017-10-05T09:04:56.999Z,15.43
2017-10-05T09:07:24.496Z,15.41
2017-10-05T09:09:52.877Z,15.59
2017-10-05T09:12:20.370Z,15.67
2017-10-05T09:14:48.162Z,15.82
2017-10-05T09:17:15.685Z,15.86
2017-10-05T09:19:43.209Z,15.81
2017-10-05T09:22:10.717Z,15.85
2017-10-05T09:24:38.172Z,15.94
2017-10-05T09:27:05.664Z,15.88
2017-10-05T09:29:33.128Z,15.92
2017-10-05T09:32:00.727Z,16.01
2017-10-05T09:34:28.211Z,16.03
2017-10-05T09:36:55.745Z,16.03
2017-10-05T09:39:23.299Z,16.03
2017-10-05T09:41:50.792Z,16.09
2017-10-05T09:44:18.276Z,16.14
2017-10-05T09:46:45.751Z,16.25
2017-10-05T09:49:13.261Z,16.36
2017-10-05T09:51:40.756Z,16.43
2017-10-05T09:54:08.241Z,16.53
2017-10-05T09:56:35.749Z,16.69
2017-10-05T09:59:03.230Z,16.78
2017-10-05T10:01:30.722Z,16.84
2017-10-05T10:03:58.283Z,16.91
2017-10-05T10:06:25.810Z,17.03
2017-10-05T10:08:54.368Z,17.07
2017-10-05T10:11:21.861Z,17.16
2017-10-05T10:13:49.346Z,17.29
2017-10-05T10:16:16.798Z,17.30
2017-10-05T10:18:44.313Z,17.30
2017-10-05T10:21:11.785Z,17.27
2017-10-05T10:23:39.277Z,17.03
2017-10-05T10:26:06.787Z,16.93
2017-10-05T10:28:34.356Z,16.93
2017-10-05T10:31:01.841Z,16.96
2017-10-05T10:33:29.334Z,16.95
2017-10-05T10:35:56.861Z,16.93
2017-10-05T10:38:24.339Z,16.94
2017-10-05T10:40:51.817Z,16.87
2017-10-05T10:43:19.363Z,16.82
2017-10-05T10:45:46.871Z,16.81
2017-10-05T10:48:14.379Z,16.69
2017-10-05T10:50:41.824Z,16.44
2017-10-05T10:53:09.301Z,16.31
2017-10-05T10:55:36.776Z,16.23
2017-10-05T10:58:04.272Z,16.10
2017-10-05T11:00:31.740Z,16.16
2017-10-05T11:02:59.561Z,16.17
2017-10-05T11:05:27.051Z,16.16
2017-10-05T11:07:54.537Z,16.15
2017-10-05T11:10:22.055Z,16.06
2017-10-05T11:12:49.513Z,16.03
2017-10-05T11:15:17.096Z,15.98
2017-10-05T11:17:44.568Z,15.89
2017-10-05T11:20:12.054Z,15.86
2017-10-05T11:22:39.556Z,15.74
2017-10-05T11:25:07.045Z,15.66
2017-10-05T11:27:35.328Z,15.60
2017-10-05T11:30:02.975Z,15.71
2017-10-05T11:32:30.453Z,15.51
2017-10-05T11:34:57.981Z,15.67
2017-10-05T11:37:25.461Z,15.68
2017-10-05T11:39:52.969Z,15.60
2017-10-05T11:42:20.463Z,15.65
2017-10-05T11:44:47.972Z,15.55
2017-10-05T11:47:15.484Z,15.46
2017-10-05T11:49:42.962Z,15.57
2017-10-05T11:52:10.508Z,15.48
2017-10-05T11:54:37.990Z,15.55
2017-10-05T11:57:05.501Z,15.57
2017-10-05T11:59:32.989Z,15.57
2017-10-05T12:02:00.464Z,15.64
2017-10-05T12:04:27.977Z,15.69
2017-10-05T12:06:55.464Z,15.45
2017-10-05T12:09:22.958Z,15.61
2017-10-05T12:11:50.430Z,15.61
2017-10-05T12:14:17.956Z,15.51
2017-10-05T12:16:45.415Z,15.58
2017-10-05T12:19:13.015Z,15.47
2017-10-05T12:21:40.469Z,15.44
2017-10-05T12:24:07.935Z,15.48
2017-10-05T12:26:35.411Z,15.46
2017-10-05T12:29:02.871Z,15.37
2017-10-05T12:31:30.409Z,15.33
2017-10-05T12:33:57.856Z,15.22
2017-10-05T12:36:25.329Z,15.24
2017-10-05T12:38:52.840Z,15.22
2017-10-05T12:41:20.289Z,15.21
2017-10-05T12:43:47.785Z,15.21
2017-10-05T12:46:15.576Z,15.21
2017-10-05T12:48:43.091Z,15.26
2017-10-05T12:51:10.574Z,15.27
2017-10-05T12:53:38.055Z,15.19
2017-10-05T12:56:05.545Z,15.28
2017-10-05T12:58:33.037Z,15.14
2017-10-05T13:01:00.557Z,15.16
2017-10-05T13:03:28.025Z,15.10
2017-10-05T13:05:55.532Z,15.12
2017-10-05T13:08:23.006Z,15.20
2017-10-05T13:10:50.588Z,15.13
2017-10-05T13:13:18.088Z,15.00
2017-10-05T13:15:45.547Z,15.02
2017-10-05T13:18:13.036Z,15.02
2017-10-05T13:20:40.521Z,15.03
2017-10-05T13:23:08.032Z,15.09
2017-10-05T13:25:35.492Z,15.13
2017-10-05T13:28:03.069Z,15.08
2017-10-05T13:30:30.552Z,15.03
2017-10-05T13:32:58.025Z,15.08
2017-10-05T13:35:25.591Z,15.01
2017-10-05T13:37:53.076Z,15.06
2017-10-05T13:40:20.549Z,15.06
2017-10-05T13:42:48.006Z,15.07
2017-10-05T13:45:15.496Z,15.07
2017-10-05T13:47:42.989Z,15.09
2017-10-05T13:50:10.525Z,15.13
2017-10-05T13:52:38.014Z,15.04
2017-10-05T13:55:05.478Z,15.07
2017-10-05T13:57:32.999Z,15.06
2017-10-05T14:00:00.495Z,14.98
2017-10-05T14:02:29.283Z,14.96
2017-10-05T14:04:56.837Z,15.03
2017-10-05T14:07:24.349Z,15.10
2017-10-05T14:09:51.847Z,15.06
2017-10-05T14:12:19.298Z,15.02
2017-10-05T14:14:46.793Z,14.93
2017-10-05T14:17:14.304Z,14.94
2017-10-05T14:19:41.832Z,14.87
2017-10-05T14:22:09.294Z,14.85
2017-10-05T14:24:36.792Z,14.91
2017-10-05T14:27:04.295Z,14.92
2017-10-05T14:29:31.825Z,14.91
2017-10-05T14:31:59.342Z,14.89
2017-10-05T14:34:26.805Z,14.79
2017-10-05T14:36:54.354Z,14.81
2017-10-05T14:39:21.848Z,14.79
2017-10-05T14:41:49.489Z,14.72
2017-10-05T14:44:16.969Z,14.79
2017-10-05T14:46:44.464Z,14.76
2017-10-05T14:49:11.925Z,14.71
2017-10-05T14:51:39.714Z,14.82
2017-10-05T14:54:07.212Z,14.81
2017-10-05T14:56:34.709Z,14.83
2017-10-05T14:59:02.193Z,14.84
2017-10-05T15:01:29.673Z,14.80
2017-10-05T15:03:57.157Z,14.86
2017-10-05T15:06:24.629Z,14.88
2017-10-05T15:08:52.941Z,14.82
2017-10-05T15:11:20.394Z,14.83
2017-10-05T15:13:48.015Z,14.89
2017-10-05T15:16:15.473Z,14.95
2017-10-05T15:18:42.958Z,15.01
2017-10-05T15:21:11.699Z,14.95
2017-10-05T15:23:39.279Z,14.95
2017-10-05T15:26:06.828Z,14.95
2017-10-05T15:28:34.306Z,14.99
2017-10-05T15:31:01.902Z,14.93
2017-10-05T15:33:29.414Z,14.75
2017-10-05T15:35:56.866Z,14.38
2017-10-05T15:38:24.349Z,14.03
2017-10-05T15:40:51.810Z,13.90
2017-10-05T15:43:19.309Z,13.95
2017-10-05T15:45:46.775Z,13.92
2017-10-05T15:48:14.337Z,13.96
2017-10-05T15:50:41.952Z,14.02
2017-10-05T15:53:09.433Z,14.18
2017-10-05T15:55:36.881Z,14.35
2017-10-05T15:58:04.405Z,14.35
2017-10-05T16:00:31.887Z,14.33
2017-10-05T16:02:59.410Z,14.32
2017-10-05T16:05:26.906Z,14.40
2017-10-05T16:07:54.380Z,14.44
2017-10-05T16:10:21.893Z,14.48
2017-10-05T16:12:49.385Z,14.41
2017-10-05T16:15:16.888Z,14.45
2017-10-05T16:17:44.344Z,14.42
2017-10-05T16:20:11.845Z,14.45
2017-10-05T16:22:39.345Z,14.52
2017-10-05T16:25:06.843Z,14.49
2017-10-05T16:27:34.366Z,14.50
2017-10-05T16:30:01.832Z,14.49
2017-10-05T16:32:29.337Z,14.40
2017-10-05T16:34:56.790Z,14.49
2017-10-05T16:37:24.291Z,14.45
2017-10-05T16:39:51.774Z,14.44
2017-10-05T16:42:19.273Z,14.26
2017-10-05T16:44:46.728Z,14.18
2017-10-05T16:47:14.353Z,14.19
2017-10-05T16:49:41.851Z,14.24
2017-10-05T16:52:09.352Z,14.25
2017-10-05T16:54:36.841Z,14.20
2017-10-05T16:57:04.290Z,14.19
2017-10-05T16:59:31.779Z,14.15
2017-10-05T17:01:59.269Z,14.04
2017-10-05T17:04:26.789Z,14.01
2017-10-05T17:06:54.236Z,13.97
2017-10-05T17:09:21.746Z,13.92
2017-10-05T17:11:49.245Z,13.86
2017-10-05T17:14:16.745Z,13.75
2017-10-05T17:16:44.248Z,13.78
2017-10-05T17:19:11.713Z,13.72
2017-10-05T17:21:39.200Z,13.80
2017-10-05T17:24:06.854Z,13.78
2017-10-05T17:26:34.331Z,13.71
2017-10-05T17:29:01.805Z,13.71
2017-10-05T17:31:29.253Z,13.69
2017-10-05T17:33:56.743Z,13.67
2017-10-05T17:36:24.202Z,13.70
2017-10-05T17:38:51.687Z,13.73
2017-10-05T17:41:19.145Z,13.70
2017-10-05T17:43:46.630Z,13.69
2017-10-05T17:46:14.075Z,13.66
2017-10-05T17:48:42.514Z,13.71
2017-10-05T17:51:10.063Z,13.76
2017-10-05T17:53:37.527Z,13.85
2017-10-05T17:56:05.029Z,13.85
2017-10-05T17:58:32.506Z,13.89
2017-10-05T18:01:00.068Z,13.95
2017-10-05T18:03:27.525Z,13.82
2017-10-05T18:05:55.769Z,13.73
2017-10-05T18:08:23.274Z,13.70
2017-10-05T18:10:50.743Z,13.68
2017-10-05T18:13:18.249Z,13.63
2017-10-05T18:15:45.763Z,13.76
2017-10-05T18:18:13.216Z,13.63
2017-10-05T18:20:40.700Z,13.52
2017-10-05T18:23:08.169Z,13.50
2017-10-05T18:25:35.690Z,13.43
2017-10-05T18:28:03.165Z,13.42
2017-10-05T18:30:30.629Z,13.40
2017-10-05T18:32:58.128Z,13.41
2017-10-05T18:35:25.645Z,13.12
2017-10-05T18:37:53.134Z,13.12
2017-10-05T18:40:20.595Z,13.09
2017-10-05T18:42:48.094Z,13.01
2017-10-05T18:45:15.579Z,12.94
2017-10-05T18:47:43.061Z,12.97
2017-10-05T18:50:10.571Z,12.90
2017-10-05T18:52:38.089Z,12.92
2017-10-05T18:55:05.562Z,12.98
2017-10-05T18:57:33.068Z,12.88
2017-10-05T19:00:00.551Z,12.80
2017-10-05T19:02:28.081Z,12.86
2017-10-05T19:04:55.544Z,12.83
2017-10-05T19:07:23.150Z,12.93
2017-10-05T19:09:50.602Z,12.99
2017-10-05T19:12:18.061Z,13.09
2017-10-05T19:14:45.547Z,13.02
2017-10-05T19:17:13.722Z,12.97
2017-10-05T19:19:41.209Z,13.09
2017-10-05T19:22:08.684Z,13.11
2017-10-05T19:24:36.194Z,13.13
2017-10-05T19:27:03.686Z,13.05
2017-10-05T19:29:31.139Z,13.06
2017-10-05T19:31:58.647Z,13.09
2017-10-05T19:34:26.269Z,13.14
2017-10-05T19:36:53.766Z,13.20
2017-10-05T19:39:21.227Z,13.27
2017-10-05T19:41:48.754Z,13.27
2017-10-05T19:44:16.237Z,13.20
2017-10-05T19:46:44.499Z,13.24
2017-10-05T19:49:12.083Z,13.14
2017-10-05T19:51:39.624Z,13.03
2017-10-05T19:54:07.133Z,12.92
2017-10-05T19:56:34.634Z,12.84
2017-10-05T19:59:02.121Z,12.72
2017-10-05T20:01:29.597Z,12.68
2017-10-05T20:03:57.116Z,12.67
2017-10-05T20:06:24.605Z,12.64
2017-10-05T20:08:52.127Z,12.63
2017-10-05T20:11:19.641Z,12.63
2017-10-05T20:14:06.908Z,12.62
2017-10-05T20:16:36.736Z,12.63
2017-10-05T20:19:11.681Z,12.68
2017-10-05T20:21:51.824Z,12.68
2017-10-05T20:24:25.053Z,12.67
2017-10-05T20:30:03.957Z,12.54
2017-10-05T20:32:42.422Z,12.54
2017-10-05T20:35:10.350Z,12.55
2017-10-05T20:37:37.823Z,12.57
2017-10-05T20:40:05.274Z,12.56
2017-10-05T20:42:32.814Z,12.56
2017-10-05T20:45:00.316Z,12.54
2017-10-05T20:47:27.828Z,12.51
2017-10-05T20:49:55.684Z,12.40
2017-10-05T20:52:23.189Z,12.42
2017-10-05T20:54:50.924Z,12.41
2017-10-05T20:57:19.222Z,12.40
2017-10-05T20:59:46.706Z,12.34
2017-10-05T21:02:14.199Z,12.29
2017-10-05T21:04:42.687Z,12.23
2017-10-05T21:07:10.177Z,12.26
2017-10-05T21:09:38.215Z,12.00
2017-10-05T21:12:05.693Z,12.37
2017-10-05T21:14:34.014Z,12.42
2017-10-05T21:17:01.464Z,12.31
2017-10-05T21:19:28.965Z,12.23
2017-10-05T21:21:56.473Z,12.14
2017-10-05T21:24:23.962Z,12.14
2017-10-05T21:26:51.434Z,12.17
2017-10-05T21:29:19.138Z,12.19
2017-10-05T21:31:46.598Z,12.21
2017-10-05T21:34:14.101Z,12.14
2017-10-05T21:36:41.587Z,12.22
2017-10-05T21:39:09.061Z,12.08
2017-10-05T21:41:36.553Z,11.99
2017-10-05T21:44:04.023Z,12.00
2017-10-05T21:46:31.501Z,11.96
2017-10-05T21:48:58.969Z,12.01
2017-10-05T21:51:26.662Z,12.02
2017-10-05T21:53:54.116Z,12.00
2017-10-05T21:56:21.573Z,12.04
2017-10-05T21:58:49.078Z,12.04
2017-10-05T22:01:16.548Z,12.02
2017-10-05T22:03:44.037Z,11.90
2017-10-05T22:06:11.494Z,11.74
2017-10-05T22:08:44.992Z,11.71
2017-10-05T22:11:13.062Z,11.74
2017-10-05T22:13:40.555Z,11.79
2017-10-05T22:16:08.032Z,11.84
2017-10-05T22:18:35.521Z,11.81
2017-10-05T22:21:03.006Z,11.77
2017-10-05T22:23:30.464Z,11.83
2017-10-05T22:25:57.963Z,11.87
2017-10-05T22:28:26.131Z,11.73
2017-10-05T22:30:53.608Z,11.67
2017-10-05T22:33:21.063Z,11.67
2017-10-05T22:35:48.552Z,11.56
2017-10-05T22:38:16.001Z,11.61
2017-10-05T22:40:43.481Z,11.61
2017-10-05T22:43:10.959Z,11.63
2017-10-05T22:45:38.891Z,11.47
2017-10-05T22:48:06.360Z,11.17
2017-10-05T22:50:33.815Z,10.94
2017-10-05T22:53:01.330Z,10.87
2017-10-05T22:55:28.804Z,10.84
2017-10-05T22:57:56.297Z,10.76
2017-10-05T23:00:23.756Z,10.76
2017-10-05T23:02:51.233Z,10.70
2017-10-05T23:05:18.703Z,10.80
2017-10-05T23:07:46.190Z,10.96
2017-10-05T23:10:13.644Z,11.05
2017-10-05T23:12:41.146Z,11.10
2017-10-05T23:15:08.636Z,11.18
2017-10-05T23:17:36.122Z,11.27
2017-10-05T23:20:03.659Z,11.16
2017-10-05T23:22:31.149Z,11.13
2017-10-05T23:24:58.651Z,11.13
2017-10-05T23:27:26.119Z,10.98
2017-10-05T23:29:53.612Z,10.87
2017-10-05T23:32:21.065Z,10.86
2017-10-05T23:34:48.540Z,10.85
2017-10-05T23:37:16.001Z,10.80
2017-10-05T23:39:43.510Z,10.84
2017-10-05T23:42:10.978Z,10.85
2017-10-05T23:44:38.449Z,10.94
2017-10-05T23:47:05.942Z,10.95
2017-10-05T23:49:33.426Z,11.09
2017-10-05T23:52:00.920Z,11.08
2017-10-05T23:54:28.419Z,11.10
2017-10-05T23:56:55.930Z,11.04
2017-10-05T23:59:23.396Z,10.94
